PWSweather.com
Personal Weather Stations
Station Observations
KMNGREYC2
Grey Cloud Island, Grey Cloud Island, MN 55071

Grey Cloud IslandGrey Cloud Island, MN 55071

Lat: 44.799333, Lon: -92.987851

Elevation: 700

Station Type: Davis VP2

www.jagielski.com/weather/conditions.htm

High Low Average
Temperature 76.2°F24.6°C 66.8°F19.3°C 72.1°F22.3°C
Dew Point 75.2°F24.0°C 64.1°F17.8°C 68.6°F20.3°C
Winds 2.0 mph 3.2 kmh Calm Calm Calm SCalm S
Wind Gusts 8.0 mph12.9 kmh -- 2.0 mph3.2 kmh
Humidity 97% 78% 89%
Pressure 29.84 in1010.5 mb 29.63 in1003.4 mb -
Precipitation 0.00 in0.0 mm - -
Hour Temp Dew Point Humidity Winds Wind Gusts Pressure Precip Precip Rate Daily Precip Total
12:00 AM 72.2°F22.3°C 67.1°F19.5°C 84% Calm Calm 3.0 mph4.8 kmh 29.84 in1010.5 mb 0.00 in0.0 mm 0.00 in0.0 mm 0.00 in0.0 mm
12:15 AM 71.8°F22.1°C 67.1°F19.5°C 85% Calm Calm -- 29.84 in1010.5 mb 0.00 in0.0 mm 0.00 in0.0 mm 0.00 in0.0 mm
12:30 AM 71.3°F21.8°C 66.6°F19.2°C 85% Calm Calm -- 29.84 in1010.5 mb 0.00 in0.0 mm 0.00 in0.0 mm 0.00 in0.0 mm
12:45 AM 70.9°F21.6°C 66.5°F19.2°C 86% Calm Calm -- 29.84 in1010.5 mb 0.00 in0.0 mm 0.00 in0.0 mm 0.00 in0.0 mm
01:00 AM 70.4°F21.3°C 66.0°F18.9°C 86% Calm Calm -- 29.84 in1010.5 mb 0.00 in0.0 mm 0.00 in0.0 mm 0.00 in0.0 mm
01:15 AM 69.9°F21.1°C 65.9°F18.8°C 87% Calm Calm 4.0 mph6.4 kmh 29.84 in1010.5 mb 0.00 in0.0 mm 0.00 in0.0 mm 0.00 in0.0 mm
01:30 AM 69.5°F20.8°C 65.8°F18.8°C 88% Calm Calm 4.0 mph6.4 kmh 29.83 in1010.2 mb 0.00 in0.0 mm 0.00 in0.0 mm 0.00 in0.0 mm
01:45 AM 69.4°F20.8°C 66.0°F18.9°C 89% Calm Calm 1.0 mph1.6 kmh 29.83 in1010.2 mb 0.00 in0.0 mm 0.00 in0.0 mm 0.00 in0.0 mm
02:00 AM 69.2°F20.7°C 65.8°F18.8°C 89% Calm Calm 1.0 mph1.6 kmh 29.83 in1010.2 mb 0.00 in0.0 mm 0.00 in0.0 mm 0.00 in0.0 mm
02:15 AM 68.9°F20.5°C 65.5°F18.6°C 89% Calm Calm -- 29.83 in1010.2 mb 0.00 in0.0 mm 0.00 in0.0 mm 0.00 in0.0 mm
02:30 AM 68.6°F20.3°C 65.2°F18.4°C 89% Calm Calm -- 29.83 in1010.2 mb 0.00 in0.0 mm 0.00 in0.0 mm 0.00 in0.0 mm
02:45 AM 68.3°F20.2°C 65.3°F18.5°C 90% Calm Calm -- 29.81 in1009.5 mb 0.00 in0.0 mm 0.00 in0.0 mm 0.00 in0.0 mm
03:00 AM 67.9°F19.9°C 64.5°F18.1°C 89% Calm Calm -- 29.81 in1009.5 mb 0.00 in0.0 mm 0.00 in0.0 mm 0.00 in0.0 mm
03:15 AM 67.6°F19.8°C 64.6°F18.1°C 90% Calm Calm 1.0 mph1.6 kmh 29.81 in1009.5 mb 0.00 in0.0 mm 0.00 in0.0 mm 0.00 in0.0 mm
03:30 AM 67.3°F19.6°C 64.6°F18.1°C 91% Calm Calm 1.0 mph1.6 kmh 29.81 in1009.5 mb 0.00 in0.0 mm 0.00 in0.0 mm 0.00 in0.0 mm
03:45 AM 67.2°F19.6°C 64.5°F18.1°C 91% Calm Calm -- 29.81 in1009.5 mb 0.00 in0.0 mm 0.00 in0.0 mm 0.00 in0.0 mm
04:00 AM 66.9°F19.4°C 64.2°F17.9°C 91% Calm Calm -- 29.81 in1009.5 mb 0.00 in0.0 mm 0.00 in0.0 mm 0.00 in0.0 mm
04:15 AM 66.8°F19.3°C 64.1°F17.8°C 91% Calm Calm 1.0 mph1.6 kmh 29.81 in1009.5 mb 0.00 in0.0 mm 0.00 in0.0 mm 0.00 in0.0 mm
04:30 AM 66.9°F19.4°C 64.5°F18.1°C 92% Calm Calm 1.0 mph1.6 kmh 29.82 in1009.8 mb 0.00 in0.0 mm 0.00 in0.0 mm 0.00 in0.0 mm
04:45 AM 66.9°F19.4°C 64.2°F17.9°C 91% Calm Calm 1.0 mph1.6 kmh 29.83 in1010.2 mb 0.00 in0.0 mm 0.00 in0.0 mm 0.00 in0.0 mm
05:00 AM 67.1°F19.5°C 64.4°F18.0°C 91% Calm Calm 1.0 mph1.6 kmh 29.83 in1010.2 mb 0.00 in0.0 mm 0.00 in0.0 mm 0.00 in0.0 mm
05:15 AM 67.3°F19.6°C 64.3°F17.9°C 90% Calm Calm 1.0 mph1.6 kmh 29.83 in1010.2 mb 0.00 in0.0 mm 0.00 in0.0 mm 0.00 in0.0 mm
05:30 AM 67.6°F19.8°C 64.6°F18.1°C 90% Calm Calm 1.0 mph1.6 kmh 29.83 in1010.2 mb 0.00 in0.0 mm 0.00 in0.0 mm 0.00 in0.0 mm
05:45 AM 67.8°F19.9°C 64.4°F18.0°C 89% Calm Calm -- 29.83 in1010.2 mb 0.00 in0.0 mm 0.00 in0.0 mm 0.00 in0.0 mm
06:00 AM 68.0°F20.0°C 64.6°F18.1°C 89% Calm Calm 2.0 mph3.2 kmh 29.83 in1010.2 mb 0.00 in0.0 mm 0.00 in0.0 mm 0.00 in0.0 mm
06:15 AM 68.2°F20.1°C 64.5°F18.1°C 88% Calm Calm 2.0 mph3.2 kmh 29.83 in1010.2 mb 0.00 in0.0 mm 0.00 in0.0 mm 0.00 in0.0 mm
06:30 AM 68.5°F20.3°C 64.5°F18.1°C 87% Calm Calm 2.0 mph3.2 kmh 29.83 in1010.2 mb 0.00 in0.0 mm 0.00 in0.0 mm 0.00 in0.0 mm
06:45 AM 68.9°F20.5°C 64.6°F18.1°C 86% Calm Calm 3.0 mph4.8 kmh 29.83 in1010.2 mb 0.00 in0.0 mm 0.00 in0.0 mm 0.00 in0.0 mm
07:00 AM 69.3°F20.7°C 64.6°F18.1°C 85% Calm Calm 3.0 mph4.8 kmh 29.82 in1009.8 mb 0.00 in0.0 mm 0.00 in0.0 mm 0.00 in0.0 mm
07:15 AM 69.8°F21.0°C 64.8°F18.2°C 84% Calm Calm 2.0 mph3.2 kmh 29.81 in1009.5 mb 0.00 in0.0 mm 0.00 in0.0 mm 0.00 in0.0 mm
07:30 AM 70.3°F21.3°C 64.6°F18.1°C 82% Calm Calm 3.0 mph4.8 kmh 29.81 in1009.5 mb 0.00 in0.0 mm 0.00 in0.0 mm 0.00 in0.0 mm
07:45 AM 70.7°F21.5°C 64.9°F18.3°C 82% 1.0 mph SSW1.6 kmh SSW 6.0 mph9.7 kmh 29.80 in1009.1 mb 0.00 in0.0 mm 0.00 in0.0 mm 0.00 in0.0 mm
08:00 AM 71.2°F21.8°C 65.1°F18.4°C 81% Calm Calm 6.0 mph9.7 kmh 29.80 in1009.1 mb 0.00 in0.0 mm 0.00 in0.0 mm 0.00 in0.0 mm
08:15 AM 71.7°F22.1°C 65.2°F18.4°C 80% Calm Calm 5.0 mph8.0 kmh 29.79 in1008.8 mb 0.00 in0.0 mm 0.00 in0.0 mm 0.00 in0.0 mm
08:30 AM 72.2°F22.3°C 65.7°F18.7°C 80% Calm Calm 5.0 mph8.0 kmh 29.78 in1008.5 mb 0.00 in0.0 mm 0.00 in0.0 mm 0.00 in0.0 mm
08:45 AM 72.7°F22.6°C 66.2°F19.0°C 80% Calm Calm 5.0 mph8.0 kmh 29.78 in1008.5 mb 0.00 in0.0 mm 0.00 in0.0 mm 0.00 in0.0 mm
09:00 AM 72.8°F22.7°C 65.9°F18.8°C 79% 1.0 mph WSW1.6 kmh WSW 5.0 mph8.0 kmh 29.78 in1008.5 mb 0.00 in0.0 mm 0.00 in0.0 mm 0.00 in0.0 mm
09:15 AM 72.8°F22.7°C 65.9°F18.8°C 79% Calm Calm 3.0 mph4.8 kmh 29.76 in1007.8 mb 0.00 in0.0 mm 0.00 in0.0 mm 0.00 in0.0 mm
09:30 AM 72.7°F22.6°C 65.8°F18.8°C 79% Calm Calm 3.0 mph4.8 kmh 29.76 in1007.8 mb 0.00 in0.0 mm 0.00 in0.0 mm 0.00 in0.0 mm
09:45 AM 72.6°F22.6°C 65.7°F18.7°C 79% Calm Calm 4.0 mph6.4 kmh 29.76 in1007.8 mb 0.00 in0.0 mm 0.00 in0.0 mm 0.00 in0.0 mm
10:00 AM 72.6°F22.6°C 66.4°F19.1°C 81% 1.0 mph W1.6 kmh W 4.0 mph6.4 kmh 29.77 in1008.1 mb 0.00 in0.0 mm 0.00 in0.0 mm 0.00 in0.0 mm
10:15 AM 72.7°F22.6°C 66.2°F19.0°C 80% Calm Calm 3.0 mph4.8 kmh 29.76 in1007.8 mb 0.00 in0.0 mm 0.00 in0.0 mm 0.00 in0.0 mm
10:30 AM 73.4°F23.0°C 67.2°F19.6°C 81% 1.0 mph ESE1.6 kmh ESE 5.0 mph8.0 kmh 29.76 in1007.8 mb 0.00 in0.0 mm 0.00 in0.0 mm 0.00 in0.0 mm
10:45 AM 74.2°F23.4°C 67.3°F19.6°C 79% Calm Calm 4.0 mph6.4 kmh 29.76 in1007.8 mb 0.00 in0.0 mm 0.00 in0.0 mm 0.00 in0.0 mm
11:00 AM 74.9°F23.8°C 68.0°F20.0°C 79% 2.0 mph ENE3.2 kmh ENE 8.0 mph12.9 kmh 29.76 in1007.8 mb 0.00 in0.0 mm 0.00 in0.0 mm 0.00 in0.0 mm
11:15 AM 75.3°F24.1°C 68.0°F20.0°C 78% Calm Calm 4.0 mph6.4 kmh 29.75 in1007.5 mb 0.00 in0.0 mm 0.00 in0.0 mm 0.00 in0.0 mm
11:30 AM 75.3°F24.1°C 68.3°F20.2°C 79% Calm Calm 4.0 mph6.4 kmh 29.75 in1007.5 mb 0.00 in0.0 mm 0.00 in0.0 mm 0.00 in0.0 mm
11:45 AM 75.5°F24.2°C 69.3°F20.7°C 81% Calm Calm 5.0 mph8.0 kmh 29.75 in1007.5 mb 0.00 in0.0 mm 0.00 in0.0 mm 0.00 in0.0 mm
12:00 PM 76.1°F24.5°C 68.8°F20.4°C 78% Calm Calm 5.0 mph8.0 kmh 29.75 in1007.5 mb 0.00 in0.0 mm 0.00 in0.0 mm 0.00 in0.0 mm
12:15 PM 76.2°F24.6°C 69.2°F20.7°C 79% Calm Calm 1.0 mph1.6 kmh 29.75 in1007.5 mb 0.00 in0.0 mm 0.00 in0.0 mm 0.00 in0.0 mm
12:30 PM 76.0°F24.4°C 69.4°F20.8°C 80% Calm Calm 3.0 mph4.8 kmh 29.75 in1007.5 mb 0.00 in0.0 mm 0.00 in0.0 mm 0.00 in0.0 mm
12:45 PM 75.8°F24.3°C 69.6°F20.9°C 81% Calm Calm 3.0 mph4.8 kmh 29.73 in1006.8 mb 0.00 in0.0 mm 0.00 in0.0 mm 0.00 in0.0 mm
01:00 PM 75.7°F24.3°C 69.5°F20.8°C 81% 2.0 mph ESE3.2 kmh ESE 4.0 mph6.4 kmh 29.72 in1006.4 mb 0.00 in0.0 mm 0.00 in0.0 mm 0.00 in0.0 mm
01:15 PM 75.5°F24.2°C 69.3°F20.7°C 81% 1.0 mph E1.6 kmh E 4.0 mph6.4 kmh 29.71 in1006.1 mb 0.00 in0.0 mm 0.00 in0.0 mm 0.00 in0.0 mm
01:30 PM 75.7°F24.3°C 69.8°F21.0°C 82% Calm Calm 5.0 mph8.0 kmh 29.70 in1005.8 mb 0.00 in0.0 mm 0.00 in0.0 mm 0.00 in0.0 mm
01:45 PM 76.0°F24.4°C 70.1°F21.2°C 82% Calm Calm 8.0 mph12.9 kmh 29.69 in1005.4 mb 0.00 in0.0 mm 0.00 in0.0 mm 0.00 in0.0 mm
02:00 PM 76.1°F24.5°C 70.6°F21.4°C 83% Calm Calm 8.0 mph12.9 kmh 29.68 in1005.1 mb 0.00 in0.0 mm 0.00 in0.0 mm 0.00 in0.0 mm
02:15 PM 76.1°F24.5°C 71.6°F22.0°C 86% Calm Calm 3.0 mph4.8 kmh 29.68 in1005.1 mb 0.12 in3.0 mm 0.48 in12.2 mm 0.12 in3.0 mm
02:30 PM 75.2°F24.0°C 71.4°F21.9°C 88% Calm Calm 3.0 mph4.8 kmh 29.67 in1004.7 mb 0.18 in4.6 mm 0.24 in6.1 mm 0.18 in4.6 mm
02:45 PM 74.5°F23.6°C 71.4°F21.9°C 90% Calm Calm 3.0 mph4.8 kmh 29.68 in1005.1 mb 0.56 in14.2 mm 1.52 in38.6 mm 0.56 in14.2 mm
03:00 PM 74.0°F23.3°C 71.9°F22.2°C 93% Calm Calm 3.0 mph4.8 kmh 29.68 in1005.1 mb 0.65 in16.5 mm 0.12 in3.0 mm 0.65 in16.5 mm
03:15 PM 73.9°F23.3°C 72.1°F22.3°C 94% Calm Calm 2.0 mph3.2 kmh 29.67 in1004.7 mb 0.66 in16.8 mm 0.04 in1.0 mm 0.66 in16.8 mm
03:30 PM 74.0°F23.3°C 72.2°F22.3°C 94% Calm Calm 2.0 mph3.2 kmh 29.67 in1004.7 mb 0.66 in16.8 mm 0.00 in0.0 mm 0.66 in16.8 mm
03:45 PM 74.0°F23.3°C 72.5°F22.5°C 95% 1.0 mph NNE1.6 kmh NNE 5.0 mph8.0 kmh 29.66 in1004.4 mb 0.37 in9.4 mm 0.00 in0.0 mm 0.66 in16.8 mm
04:00 PM 73.9°F23.3°C 72.4°F22.4°C 95% 2.0 mph E3.2 kmh E 5.0 mph8.0 kmh 29.64 in1003.7 mb 0.37 in9.4 mm 0.00 in0.0 mm 0.66 in16.8 mm
04:15 PM 73.8°F23.2°C 72.3°F22.4°C 95% 1.0 mph S1.6 kmh S 4.0 mph6.4 kmh 29.64 in1003.7 mb 0.06 in1.5 mm 0.00 in0.0 mm 0.66 in16.8 mm
04:30 PM 73.8°F23.2°C 72.6°F22.6°C 96% Calm Calm 4.0 mph6.4 kmh 29.65 in1004.1 mb 0.07 in1.8 mm 0.04 in1.0 mm 0.67 in17.0 mm
04:45 PM 74.2°F23.4°C 73.0°F22.8°C 96% Calm Calm 1.0 mph1.6 kmh 29.64 in1003.7 mb 0.07 in1.8 mm 0.00 in0.0 mm 0.67 in17.0 mm
05:00 PM 74.6°F23.7°C 73.7°F23.2°C 97% Calm Calm 3.0 mph4.8 kmh 29.64 in1003.7 mb 0.07 in1.8 mm 0.00 in0.0 mm 0.67 in17.0 mm
05:15 PM 75.0°F23.9°C 74.1°F23.4°C 97% Calm Calm -- 29.64 in1003.7 mb 0.06 in1.5 mm 0.00 in0.0 mm 0.67 in17.0 mm
05:30 PM 75.3°F24.1°C 74.4°F23.6°C 97% Calm Calm -- 29.63 in1003.4 mb 0.06 in1.5 mm 0.00 in0.0 mm 0.67 in17.0 mm
05:45 PM 75.8°F24.3°C 74.9°F23.8°C 97% Calm Calm 5.0 mph8.0 kmh 29.63 in1003.4 mb 0.00 in0.0 mm 0.00 in0.0 mm 0.67 in17.0 mm
06:00 PM 76.1°F24.5°C 75.2°F24.0°C 97% Calm Calm 5.0 mph8.0 kmh 29.63 in1003.4 mb 0.00 in0.0 mm 0.00 in0.0 mm 0.67 in17.0 mm
06:15 PM 76.0°F24.4°C 75.1°F23.9°C 97% 2.0 mph SSE3.2 kmh SSE 2.0 mph3.2 kmh 29.64 in1003.7 mb 0.00 in0.0 mm 0.00 in0.0 mm 0.67 in17.0 mm
06:30 PM 75.6°F24.2°C 74.7°F23.7°C 97% Calm Calm 4.0 mph6.4 kmh 29.64 in1003.7 mb 0.00 in0.0 mm 0.00 in0.0 mm 0.67 in17.0 mm
06:45 PM 75.3°F24.1°C 74.4°F23.6°C 97% Calm Calm 6.0 mph9.7 kmh 29.64 in1003.7 mb 0.00 in0.0 mm 0.00 in0.0 mm 0.67 in17.0 mm
07:00 PM 75.2°F24.0°C 74.3°F23.5°C 97% Calm Calm 6.0 mph9.7 kmh 29.65 in1004.1 mb 0.00 in0.0 mm 0.00 in0.0 mm 0.67 in17.0 mm
07:15 PM 75.2°F24.0°C 74.3°F23.5°C 97% Calm Calm 1.0 mph1.6 kmh 29.65 in1004.1 mb 0.00 in0.0 mm 0.00 in0.0 mm 0.67 in17.0 mm
07:30 PM 75.0°F23.9°C 74.1°F23.4°C 97% Calm Calm 3.0 mph4.8 kmh 29.66 in1004.4 mb 0.00 in0.0 mm 0.00 in0.0 mm 0.67 in17.0 mm
07:45 PM 74.6°F23.7°C 73.7°F23.2°C 97% Calm Calm 2.0 mph3.2 kmh 29.66 in1004.4 mb 0.00 in0.0 mm 0.00 in0.0 mm 0.67 in17.0 mm
08:00 PM 74.2°F23.4°C 73.3°F22.9°C 97% Calm Calm 2.0 mph3.2 kmh 29.67 in1004.7 mb 0.00 in0.0 mm 0.00 in0.0 mm 0.67 in17.0 mm
08:15 PM 73.9°F23.3°C 73.0°F22.8°C 97% Calm Calm 1.0 mph1.6 kmh 29.67 in1004.7 mb 0.00 in0.0 mm 0.00 in0.0 mm 0.67 in17.0 mm
08:30 PM 73.5°F23.1°C 72.3°F22.4°C 96% Calm Calm 1.0 mph1.6 kmh 29.67 in1004.7 mb 0.00 in0.0 mm 0.00 in0.0 mm 0.67 in17.0 mm
08:45 PM 73.1°F22.8°C 72.2°F22.3°C 97% Calm Calm 1.0 mph1.6 kmh 29.68 in1005.1 mb 0.00 in0.0 mm 0.00 in0.0 mm 0.67 in17.0 mm
09:00 PM 72.8°F22.7°C 71.6°F22.0°C 96% Calm Calm 1.0 mph1.6 kmh 29.68 in1005.1 mb 0.00 in0.0 mm 0.00 in0.0 mm 0.67 in17.0 mm
09:15 PM 72.4°F22.4°C 71.5°F21.9°C 97% Calm Calm -- 29.68 in1005.1 mb 0.00 in0.0 mm 0.00 in0.0 mm 0.67 in17.0 mm
09:30 PM 72.1°F22.3°C 70.9°F21.6°C 96% Calm Calm -- 29.69 in1005.4 mb 0.00 in0.0 mm 0.00 in0.0 mm 0.67 in17.0 mm
09:45 PM 71.7°F22.1°C 70.5°F21.4°C 96% Calm Calm -- 29.70 in1005.8 mb 0.00 in0.0 mm 0.00 in0.0 mm 0.67 in17.0 mm
10:00 PM 71.3°F21.8°C 70.1°F21.2°C 96% Calm Calm -- 29.69 in1005.4 mb 0.00 in0.0 mm 0.00 in0.0 mm 0.67 in17.0 mm
10:15 PM 70.8°F21.6°C 69.6°F20.9°C 96% Calm Calm -- 29.70 in1005.8 mb 0.00 in0.0 mm 0.00 in0.0 mm 0.67 in17.0 mm
10:30 PM 70.4°F21.3°C 69.2°F20.7°C 96% Calm Calm -- 29.69 in1005.4 mb 0.00 in0.0 mm 0.00 in0.0 mm 0.67 in17.0 mm
10:45 PM 70.0°F21.1°C 68.8°F20.4°C 96% Calm Calm -- 29.69 in1005.4 mb 0.00 in0.0 mm 0.00 in0.0 mm 0.67 in17.0 mm
11:00 PM 69.7°F20.9°C 68.5°F20.3°C 96% Calm Calm -- 29.70 in1005.8 mb 0.00 in0.0 mm 0.00 in0.0 mm 0.67 in17.0 mm
11:15 PM 69.5°F20.8°C 68.3°F20.2°C 96% Calm Calm -- 29.70 in1005.8 mb 0.00 in0.0 mm 0.00 in0.0 mm 0.67 in17.0 mm
11:30 PM 69.3°F20.7°C 68.1°F20.1°C 96% Calm Calm -- 29.70 in1005.8 mb 0.00 in0.0 mm 0.00 in0.0 mm 0.67 in17.0 mm
11:45 PM 69.2°F20.7°C 68.3°F20.2°C 97% Calm Calm -- 29.70 in1005.8 mb 0.00 in0.0 mm 0.00 in0.0 mm 0.67 in17.0 mm